createdAt,value
2023-01-11T00:01:06.386Z,3.90
2023-01-11T00:03:33.826Z,3.90
2023-01-11T00:06:01.264Z,4.10
2023-01-11T00:08:29.041Z,4.10
2023-01-11T00:10:56.820Z,4.10
2023-01-11T00:13:24.108Z,4.00
2023-01-11T00:15:51.215Z,4.00
2023-01-11T00:18:18.380Z,3.90
2023-01-11T00:20:45.677Z,4.20
2023-01-11T00:23:12.805Z,4.10
2023-01-11T00:25:40.364Z,3.80
2023-01-11T00:28:07.515Z,3.60
2023-01-11T00:30:35.928Z,3.90
2023-01-11T00:33:03.193Z,3.80
2023-01-11T00:35:32.403Z,3.80
2023-01-11T00:37:59.509Z,3.80
2023-01-11T00:40:27.151Z,4.10
2023-01-11T00:43:13.131Z,3.80
2023-01-11T00:45:59.771Z,3.70
2023-01-11T00:48:26.893Z,3.70
2023-01-11T00:50:57.303Z,4.20
2023-01-11T00:53:24.592Z,3.70
2023-01-11T00:55:51.551Z,3.80
2023-01-11T00:58:18.497Z,3.60
2023-01-11T01:00:45.557Z,4.00
2023-01-11T01:03:12.667Z,4.00
2023-01-11T01:05:39.725Z,3.90
2023-01-11T01:08:07.128Z,4.10
2023-01-11T01:10:34.357Z,3.90
2023-01-11T01:13:19.658Z,4.10
2023-01-11T01:15:46.701Z,3.80
2023-01-11T01:18:13.818Z,3.70
2023-01-11T01:20:41.100Z,4.10
2023-01-11T01:23:08.571Z,3.90
2023-01-11T01:25:37.788Z,4.00
2023-01-11T01:28:05.094Z,4.00
2023-01-11T01:30:33.758Z,3.80
2023-01-11T01:33:00.865Z,3.70
2023-01-11T01:35:27.961Z,4.00
2023-01-11T01:37:54.975Z,4.20
2023-01-11T01:40:22.925Z,4.00
2023-01-11T01:42:54.733Z,4.00
2023-01-11T01:45:27.655Z,3.90
2023-01-11T01:48:01.920Z,4.10
2023-01-11T01:50:48.930Z,4.20
2023-01-11T01:53:39.817Z,4.10
2023-01-11T01:56:33.050Z,4.10
2023-01-11T01:59:09.094Z,4.10
2023-01-11T02:01:47.949Z,4.10
2023-01-11T02:04:28.599Z,4.10
2023-01-11T02:07:01.871Z,4.10
2023-01-11T02:09:50.956Z,4.00
2023-01-11T02:12:19.395Z,4.00
2023-01-11T02:14:49.078Z,3.90
2023-01-11T02:17:16.347Z,4.00
2023-01-11T02:20:09.391Z,4.00
2023-01-11T02:22:45.237Z,4.00
2023-01-11T02:25:15.107Z,4.00
2023-01-11T02:28:07.688Z,4.00
2023-01-11T02:30:53.586Z,4.00
2023-01-11T02:33:40.853Z,4.00
2023-01-11T02:36:26.276Z,3.90
2023-01-11T02:39:26.235Z,4.00
2023-01-11T02:42:40.939Z,3.80
2023-01-11T02:45:42.390Z,3.80
2023-01-11T02:48:30.863Z,3.90
2023-01-11T02:51:22.463Z,3.80
2023-01-11T02:54:02.066Z,3.40
2023-01-11T02:56:36.371Z,3.60
2023-01-11T02:59:05.692Z,3.60
2023-01-11T03:01:32.753Z,3.70
2023-01-11T03:03:59.785Z,3.30
2023-01-11T03:06:33.188Z,3.40
2023-01-11T03:09:20.747Z,3.50
2023-01-11T03:12:31.503Z,3.60
2023-01-11T03:15:26.916Z,3.50
2023-01-11T03:18:05.618Z,3.20
2023-01-11T03:20:44.197Z,3.50
2023-01-11T03:23:59.006Z,3.30
2023-01-11T03:26:44.880Z,3.30
2023-01-11T03:29:48.059Z,3.10
2023-01-11T03:32:52.362Z,3.00
2023-01-11T03:35:45.482Z,3.40
2023-01-11T03:38:41.481Z,3.10
2023-01-11T03:41:19.004Z,3.20
2023-01-11T03:43:51.909Z,3.00
2023-01-11T03:46:53.305Z,3.00
2023-01-11T03:49:47.730Z,3.00
2023-01-11T03:52:20.622Z,3.00
2023-01-11T03:54:49.037Z,2.90
2023-01-11T03:57:31.111Z,3.10
2023-01-11T03:59:58.505Z,2.90
2023-01-11T04:02:33.820Z,2.90
2023-01-11T04:05:01.669Z,2.80
2023-01-11T04:07:29.270Z,2.80
2023-01-11T04:09:57.065Z,2.90
2023-01-11T04:12:25.021Z,2.90
2023-01-11T04:14:52.509Z,2.80
2023-01-11T04:17:19.836Z,2.80
2023-01-11T04:19:47.389Z,3.00
2023-01-11T04:22:14.528Z,2.60
2023-01-11T04:24:41.619Z,2.70
2023-01-11T04:27:09.191Z,2.50
2023-01-11T04:29:36.264Z,2.40
2023-01-11T04:32:03.796Z,2.50
2023-01-11T04:34:30.855Z,2.60
2023-01-11T04:36:58.002Z,2.20
2023-01-11T04:39:25.158Z,2.30
2023-01-11T04:42:10.566Z,2.50
2023-01-11T04:44:37.619Z,2.60
2023-01-11T04:47:04.750Z,2.40
2023-01-11T04:49:31.773Z,2.30
2023-01-11T04:51:58.772Z,2.40
2023-01-11T04:54:25.855Z,2.30
2023-01-11T04:56:53.032Z,2.30
2023-01-11T04:59:20.109Z,2.20
2023-01-11T05:01:47.151Z,2.00
2023-01-11T05:04:14.328Z,2.00
2023-01-11T05:06:41.414Z,1.80
2023-01-11T05:09:15.018Z,1.90
2023-01-11T05:11:42.288Z,1.90
2023-01-11T05:14:09.910Z,2.00
2023-01-11T05:16:37.565Z,2.00
2023-01-11T05:19:06.331Z,1.90
2023-01-11T05:21:40.392Z,1.90
2023-01-11T05:24:13.348Z,2.70
2023-01-11T05:26:44.463Z,1.90
2023-01-11T05:29:16.417Z,1.90
2023-01-11T05:31:43.834Z,1.90
2023-01-11T05:34:14.222Z,1.90
2023-01-11T05:36:42.441Z,1.60
2023-01-11T05:39:12.618Z,1.70
2023-01-11T05:41:40.454Z,1.40
2023-01-11T05:44:31.566Z,1.80
2023-01-11T05:46:59.570Z,1.50
2023-01-11T05:49:26.666Z,1.80
2023-01-11T05:51:53.831Z,2.50
2023-01-11T05:54:21.166Z,1.50
2023-01-11T05:56:49.383Z,1.40
2023-01-11T05:59:16.487Z,1.60
2023-01-11T06:01:43.603Z,1.70
2023-01-11T06:04:10.985Z,2.00
2023-01-11T06:06:38.225Z,1.60
2023-01-11T06:09:05.586Z,1.50
2023-01-11T06:11:32.639Z,1.40
2023-01-11T06:14:01.838Z,1.70
2023-01-11T06:16:29.102Z,1.50
2023-01-11T06:18:56.250Z,1.50
2023-01-11T06:21:24.136Z,1.40
2023-01-11T06:23:51.306Z,1.70
2023-01-11T06:26:21.703Z,1.40
2023-01-11T06:28:50.112Z,1.30
2023-01-11T06:31:18.456Z,1.30
2023-01-11T06:33:46.620Z,1.30
2023-01-11T06:36:15.132Z,1.50
2023-01-11T06:38:43.460Z,1.30
2023-01-11T06:41:15.954Z,1.30
2023-01-11T06:43:46.623Z,1.30
2023-01-11T06:46:16.095Z,1.10
2023-01-11T06:48:44.529Z,1.30
2023-01-11T06:51:12.431Z,1.30
2023-01-11T06:53:41.236Z,1.30
2023-01-11T06:56:25.806Z,1.40
2023-01-11T06:58:58.844Z,1.30
2023-01-11T07:01:26.692Z,1.40
2023-01-11T07:03:54.198Z,1.30
2023-01-11T07:06:22.049Z,1.20
2023-01-11T07:08:52.140Z,1.40
2023-01-11T07:11:19.448Z,1.50
2023-01-11T07:13:46.632Z,1.40
2023-01-11T07:16:14.011Z,1.20
2023-01-11T07:18:41.186Z,1.50
2023-01-11T07:21:11.276Z,1.50
2023-01-11T07:23:38.414Z,1.60
2023-01-11T07:26:05.929Z,1.60
2023-01-11T07:28:32.999Z,1.70
2023-01-11T07:31:00.398Z,1.30
2023-01-11T07:33:28.354Z,1.70
2023-01-11T07:35:55.905Z,1.80
2023-01-11T07:38:23.673Z,1.70
2023-01-11T07:40:50.773Z,2.00
2023-01-11T07:43:23.469Z,2.10
2023-01-11T07:45:53.227Z,1.90
2023-01-11T07:48:26.625Z,2.20
2023-01-11T07:50:54.950Z,2.20
2023-01-11T07:53:25.751Z,2.50
2023-01-11T07:55:55.451Z,2.30
2023-01-11T07:58:25.354Z,2.50
2023-01-11T08:00:52.477Z,2.30
2023-01-11T08:03:19.695Z,2.30
2023-01-11T08:05:53.929Z,2.50
2023-01-11T08:08:21.810Z,2.50
2023-01-11T08:11:09.389Z,2.40
2023-01-11T08:13:55.297Z,2.70
2023-01-11T08:16:22.754Z,2.70
2023-01-11T08:18:53.377Z,2.70
2023-01-11T08:21:21.486Z,2.70
2023-01-11T08:23:48.672Z,2.90
2023-01-11T08:26:18.030Z,2.70
2023-01-11T08:28:46.753Z,3.00
2023-01-11T08:31:13.895Z,3.10
2023-01-11T08:33:41.290Z,3.30
2023-01-11T08:36:11.393Z,3.30
2023-01-11T08:38:39.841Z,3.50
2023-01-11T08:41:14.733Z,3.50
2023-01-11T08:43:42.786Z,3.90
2023-01-11T08:46:10.873Z,3.90
2023-01-11T08:48:37.931Z,4.20
2023-01-11T08:51:05.331Z,4.40
2023-01-11T08:53:32.321Z,4.40
2023-01-11T08:55:59.541Z,4.80
2023-01-11T08:58:26.547Z,4.60
2023-01-11T09:00:53.690Z,4.50
2023-01-11T09:03:20.879Z,4.60
2023-01-11T09:05:47.911Z,5.00
2023-01-11T09:08:14.983Z,4.90
2023-01-11T09:10:42.072Z,5.00
2023-01-11T09:13:09.097Z,5.10
2023-01-11T09:15:36.260Z,5.30
2023-01-11T09:18:03.562Z,5.30
2023-01-11T09:20:30.876Z,5.80
2023-01-11T09:22:58.004Z,5.90
2023-01-11T09:25:25.540Z,6.30
2023-01-11T09:27:53.163Z,6.20
2023-01-11T09:30:22.925Z,6.80
2023-01-11T09:32:51.871Z,6.80
2023-01-11T09:35:19.405Z,7.00
2023-01-11T09:37:54.488Z,7.00
2023-01-11T09:40:46.162Z,7.30
2023-01-11T09:43:17.489Z,7.60
2023-01-11T09:45:47.010Z,7.60
2023-01-11T09:48:37.848Z,7.70
2023-01-11T09:51:06.038Z,8.00
2023-01-11T09:53:38.335Z,8.50
2023-01-11T09:56:13.069Z,8.90
2023-01-11T09:58:59.858Z,9.00
2023-01-11T10:01:45.639Z,9.00
2023-01-11T10:05:09.805Z,9.50
2023-01-11T10:18:25.907Z,9.60
2023-01-11T10:18:29.965Z,9.40
2023-01-11T10:21:02.074Z,9.70
2023-01-11T10:24:14.815Z,9.60
2023-01-11T10:26:42.116Z,9.50
2023-01-11T10:30:07.178Z,9.30
2023-01-11T10:32:54.256Z,9.60
2023-01-11T10:35:45.069Z,9.60
2023-01-11T10:38:46.694Z,9.80
2023-01-11T10:41:43.159Z,9.80
2023-01-11T10:44:10.555Z,9.70
2023-01-11T10:46:45.271Z,9.60
2023-01-11T10:49:36.521Z,9.70
2023-01-11T10:52:35.258Z,9.90
2023-01-11T10:55:14.426Z,9.80
2023-01-11T10:58:00.617Z,10.50
2023-01-11T11:00:48.660Z,10.40
2023-01-11T11:03:43.608Z,10.60
2023-01-11T11:06:37.789Z,10.50
2023-01-11T11:10:21.839Z,10.40
2023-01-11T11:13:11.339Z,10.30
2023-01-11T11:16:00.491Z,10.40
2023-01-11T11:18:28.020Z,10.40
2023-01-11T11:21:04.036Z,10.40
2023-01-11T11:23:32.504Z,10.40
2023-01-11T11:26:04.383Z,10.80
2023-01-11T11:28:33.893Z,10.90
2023-01-11T11:31:05.681Z,10.80
2023-01-11T11:33:39.920Z,10.70
2023-01-11T11:36:12.166Z,10.60
2023-01-11T11:39:11.115Z,11.00
2023-01-11T11:42:08.450Z,11.00
2023-01-11T11:44:35.629Z,11.00
2023-01-11T11:47:06.436Z,11.30
2023-01-11T11:49:36.649Z,11.00
2023-01-11T11:52:06.692Z,10.80
2023-01-11T11:54:51.660Z,11.20
2023-01-11T11:57:28.772Z,11.20
2023-01-11T12:00:02.778Z,11.30
2023-01-11T12:02:32.938Z,11.30
2023-01-11T12:05:07.701Z,11.50
2023-01-11T12:07:54.936Z,11.50
2023-01-11T12:10:29.146Z,11.50
2023-01-11T12:13:02.859Z,11.70
2023-01-11T12:15:32.930Z,11.80
2023-01-11T12:18:32.917Z,11.50
2023-01-11T12:21:22.239Z,11.60
2023-01-11T12:24:23.849Z,11.90
2023-01-11T12:27:12.438Z,11.90
2023-01-11T12:30:18.406Z,12.20
2023-01-11T12:33:12.520Z,11.90
2023-01-11T12:36:20.215Z,11.90
2023-01-11T12:39:24.421Z,11.80
2023-01-11T12:42:19.236Z,11.70
2023-01-11T12:45:38.409Z,12.00
2023-01-11T12:48:29.528Z,11.90
2023-01-11T12:51:17.819Z,11.80
2023-01-11T12:54:25.539Z,11.80
2023-01-11T12:57:27.117Z,11.90
2023-01-11T13:00:35.099Z,11.70
2023-01-11T13:03:36.901Z,11.70
2023-01-11T13:06:23.071Z,11.60
2023-01-11T13:09:18.745Z,11.60
2023-01-11T13:12:00.824Z,11.10
2023-01-11T13:14:36.565Z,11.60
2023-01-11T13:17:28.316Z,11.30
2023-01-11T13:20:28.790Z,11.20
2023-01-11T13:23:04.698Z,11.20
2023-01-11T13:25:42.263Z,11.40
2023-01-11T13:28:40.953Z,11.40
2023-01-11T13:31:12.629Z,11.50
2023-01-11T13:33:53.705Z,11.40
2023-01-11T13:36:30.435Z,11.50
2023-01-11T13:39:28.901Z,11.40
2023-01-11T13:42:14.112Z,11.10
2023-01-11T13:44:51.671Z,11.30
2023-01-11T13:47:50.629Z,11.20
2023-01-11T13:51:09.715Z,11.20
2023-01-11T13:54:01.715Z,11.30
2023-01-11T13:56:59.787Z,11.10
2023-01-11T13:59:44.309Z,11.00
2023-01-11T14:02:32.422Z,11.30
2023-01-11T14:05:13.038Z,10.80
2023-01-11T14:08:17.371Z,10.80
2023-01-11T14:11:31.664Z,10.60
2023-01-11T14:14:27.193Z,10.70
2023-01-11T14:17:33.651Z,10.30
2023-01-11T14:20:12.381Z,10.50
2023-01-11T14:23:02.630Z,10.40
2023-01-11T14:25:59.977Z,10.20
2023-01-11T14:28:57.252Z,10.20
2023-01-11T14:31:48.868Z,10.20
2023-01-11T14:34:46.293Z,10.20
2023-01-11T14:37:50.830Z,9.90
2023-01-11T14:40:50.060Z,9.80
2023-01-11T14:43:41.543Z,9.70
2023-01-11T14:47:05.583Z,9.80
2023-01-11T14:50:03.394Z,9.60
2023-01-11T14:52:40.037Z,9.50
2023-01-11T14:55:30.530Z,9.40
2023-01-11T14:58:22.458Z,9.30
2023-01-11T15:00:49.563Z,9.10
2023-01-11T15:03:18.285Z,9.00
2023-01-11T15:06:13.614Z,8.90
2023-01-11T15:08:48.230Z,8.80
2023-01-11T15:11:33.004Z,8.70
2023-01-11T15:14:14.185Z,8.60
2023-01-11T15:17:08.651Z,8.50
2023-01-11T15:19:41.354Z,8.60
2023-01-11T15:22:23.242Z,8.50
2023-01-11T15:24:59.979Z,8.10
2023-01-11T15:27:36.120Z,8.30
2023-01-11T15:30:30.463Z,8.30
2023-01-11T15:33:19.714Z,8.20
2023-01-11T15:35:56.118Z,7.90
2023-01-11T15:38:37.524Z,8.00
2023-01-11T15:41:32.938Z,7.80
2023-01-11T15:44:20.187Z,7.60
2023-01-11T15:47:11.920Z,7.70
2023-01-11T15:50:27.310Z,7.70
2023-01-11T15:53:34.124Z,7.70
2023-01-11T15:56:43.758Z,7.30
2023-01-11T15:59:38.603Z,7.30
2023-01-11T16:02:15.117Z,7.60
2023-01-11T16:05:10.649Z,7.30
2023-01-11T16:07:59.677Z,6.90
2023-01-11T16:10:45.958Z,6.90
2023-01-11T16:13:49.121Z,6.70
2023-01-11T16:16:33.987Z,6.80
2023-01-11T16:19:26.409Z,6.70
2023-01-11T16:21:59.098Z,6.70
2023-01-11T16:24:33.103Z,6.30
2023-01-11T16:27:04.836Z,6.40
2023-01-11T16:29:38.259Z,6.40
2023-01-11T16:32:21.239Z,6.20
2023-01-11T16:34:52.064Z,5.90
2023-01-11T16:37:45.352Z,6.00
2023-01-11T16:40:24.449Z,6.30
2023-01-11T16:43:17.030Z,5.90
2023-01-11T16:45:56.279Z,6.00
2023-01-11T16:48:29.911Z,5.80
2023-01-11T16:51:05.225Z,5.80
2023-01-11T16:53:36.273Z,5.70
2023-01-11T16:56:35.548Z,5.70
2023-01-11T16:59:21.894Z,5.50
2023-01-11T17:01:56.099Z,5.60
2023-01-11T17:04:49.041Z,5.50
2023-01-11T17:07:30.122Z,5.60
2023-01-11T17:10:32.700Z,5.50
2023-01-11T17:13:45.913Z,5.50
2023-01-11T17:16:16.255Z,5.60
2023-01-11T17:18:44.419Z,5.50
2023-01-11T17:21:24.044Z,5.40
2023-01-11T17:23:55.647Z,5.40
2023-01-11T17:26:29.186Z,5.40
2023-01-11T17:28:59.700Z,5.40
2023-01-11T17:31:34.762Z,5.10
2023-01-11T17:34:27.050Z,4.90
2023-01-11T17:36:55.462Z,4.70
2023-01-11T17:39:33.638Z,4.90
2023-01-11T17:42:29.736Z,4.80
2023-01-11T17:45:15.771Z,4.60
2023-01-11T17:47:46.803Z,4.60
2023-01-11T17:50:39.552Z,4.60
2023-01-11T17:53:14.085Z,4.40
2023-01-11T17:56:02.625Z,4.30
2023-01-11T17:58:37.211Z,4.60
2023-01-11T18:01:17.733Z,4.60
2023-01-11T18:03:57.028Z,4.50
2023-01-11T18:06:40.146Z,4.30
2023-01-11T18:09:20.146Z,4.40
2023-01-11T18:11:47.789Z,4.00
2023-01-11T18:14:32.204Z,4.00
2023-01-11T18:17:24.411Z,4.10
2023-01-11T18:19:51.905Z,4.20
2023-01-11T18:22:41.914Z,4.00
2023-01-11T18:25:19.511Z,4.00
2023-01-11T18:27:47.302Z,3.90
2023-01-11T18:30:32.844Z,3.80
2023-01-11T18:33:03.679Z,3.90
2023-01-11T18:35:30.996Z,3.90
2023-01-11T18:37:58.062Z,3.90
2023-01-11T18:40:25.157Z,3.80
2023-01-11T18:42:53.831Z,3.80
2023-01-11T18:45:22.204Z,3.80
2023-01-11T18:47:49.251Z,3.80
2023-01-11T18:50:19.457Z,3.80
2023-01-11T18:52:46.743Z,4.10
2023-01-11T18:55:15.073Z,3.80
2023-01-11T18:57:42.476Z,3.60
2023-01-11T19:00:14.527Z,3.70
2023-01-11T19:02:44.439Z,3.70
2023-01-11T19:05:15.185Z,3.50
2023-01-11T19:07:42.260Z,3.70
2023-01-11T19:10:13.531Z,3.70
2023-01-11T19:12:41.271Z,3.80
2023-01-11T19:15:12.224Z,3.40
2023-01-11T19:17:39.740Z,3.40
2023-01-11T19:20:13.462Z,3.20
2023-01-11T19:22:41.424Z,3.20
2023-01-11T19:25:09.711Z,3.50
2023-01-11T19:27:37.637Z,3.20
2023-01-11T19:30:08.803Z,3.10
2023-01-11T19:32:35.921Z,3.10
2023-01-11T19:35:03.085Z,3.00
2023-01-11T19:37:30.372Z,3.00
2023-01-11T19:39:57.500Z,3.00
2023-01-11T19:42:24.712Z,3.00
2023-01-11T19:44:52.032Z,2.90
2023-01-11T19:47:19.243Z,2.80
2023-01-11T19:49:46.409Z,2.90
2023-01-11T19:52:19.312Z,3.00
2023-01-11T19:54:47.715Z,3.10
2023-01-11T19:57:20.453Z,3.00
2023-01-11T19:59:50.600Z,3.10
2023-01-11T20:02:21.018Z,3.20
2023-01-11T20:04:48.789Z,2.90
2023-01-11T20:07:17.283Z,3.50
2023-01-11T20:09:45.438Z,3.40
2023-01-11T20:12:16.055Z,3.00
2023-01-11T20:14:46.763Z,3.50
2023-01-11T20:17:15.991Z,3.30
2023-01-11T20:19:43.465Z,3.40
2023-01-11T20:22:10.590Z,3.10
2023-01-11T20:24:37.680Z,3.10
2023-01-11T20:27:04.922Z,3.10
2023-01-11T20:29:32.134Z,3.20
2023-01-11T20:32:18.681Z,3.50
2023-01-11T20:34:47.227Z,3.50
2023-01-11T20:37:15.212Z,3.20
2023-01-11T20:39:42.339Z,3.10
2023-01-11T20:42:12.486Z,3.50
2023-01-11T20:44:42.468Z,3.30
2023-01-11T20:47:09.556Z,3.40
2023-01-11T20:49:36.788Z,3.00
2023-01-11T20:52:04.632Z,3.10
2023-01-11T20:54:31.897Z,3.40
2023-01-11T20:57:02.248Z,3.10
2023-01-11T20:59:32.375Z,3.40
2023-01-11T21:01:59.538Z,3.30
2023-01-11T21:04:26.704Z,3.10
2023-01-11T21:06:53.809Z,3.20
2023-01-11T21:09:20.883Z,3.10
2023-01-11T21:11:54.150Z,3.40
2023-01-11T21:14:22.773Z,3.40
2023-01-11T21:16:50.102Z,3.10
2023-01-11T21:19:17.431Z,3.20
2023-01-11T21:21:44.731Z,3.40
2023-01-11T21:24:15.583Z,3.40
2023-01-11T21:26:45.251Z,3.00
2023-01-11T21:29:13.230Z,3.10
2023-01-11T21:31:41.244Z,3.40
2023-01-11T21:34:12.142Z,3.30
2023-01-11T21:36:41.177Z,3.20
2023-01-11T21:39:09.471Z,3.20
2023-01-11T21:41:54.833Z,3.40
2023-01-11T21:44:34.001Z,3.30
2023-01-11T21:47:04.319Z,3.30
2023-01-11T21:49:32.550Z,3.40
2023-01-11T21:52:00.212Z,3.20
2023-01-11T21:54:27.410Z,3.10
2023-01-11T21:56:54.820Z,3.50
2023-01-11T21:59:22.495Z,3.20
2023-01-11T22:01:49.568Z,3.40
2023-01-11T22:04:20.087Z,3.00
2023-01-11T22:06:54.872Z,3.30
2023-01-11T22:09:25.590Z,3.30
2023-01-11T22:11:52.828Z,3.20
2023-01-11T22:14:20.045Z,3.50
2023-01-11T22:16:47.400Z,3.20
2023-01-11T22:19:14.819Z,3.20
2023-01-11T22:21:42.042Z,3.50
2023-01-11T22:24:13.057Z,3.30
2023-01-11T22:26:40.880Z,3.20
2023-01-11T22:29:17.863Z,3.20
2023-01-11T22:32:01.493Z,3.30
2023-01-11T22:34:28.714Z,3.40
2023-01-11T22:36:55.965Z,3.30
2023-01-11T22:39:24.186Z,3.20
2023-01-11T22:41:51.413Z,3.20
2023-01-11T22:44:19.602Z,3.50
2023-01-11T22:46:46.860Z,3.60
2023-01-11T22:49:14.929Z,3.50
2023-01-11T22:51:44.007Z,3.40
2023-01-11T22:54:12.853Z,3.40
2023-01-11T22:56:40.545Z,3.10
2023-01-11T22:59:10.408Z,3.60
2023-01-11T23:01:41.996Z,3.40
2023-01-11T23:04:13.711Z,3.30
2023-01-11T23:06:43.118Z,3.40
2023-01-11T23:09:16.350Z,3.60
2023-01-11T23:12:03.719Z,3.20
2023-01-11T23:14:37.742Z,3.10
2023-01-11T23:17:07.000Z,3.30
2023-01-11T23:19:40.169Z,3.30
2023-01-11T23:22:09.734Z,3.20
2023-01-11T23:24:37.943Z,3.20
2023-01-11T23:27:05.503Z,3.40
2023-01-11T23:29:32.746Z,3.20
2023-01-11T23:32:00.053Z,3.30
2023-01-11T23:34:27.431Z,3.60
2023-01-11T23:36:54.551Z,3.50
2023-01-11T23:39:21.655Z,3.60
2023-01-11T23:42:06.994Z,3.60
2023-01-11T23:44:34.343Z,3.40
2023-01-11T23:47:19.738Z,3.20
2023-01-11T23:49:49.465Z,3.40
2023-01-11T23:52:19.054Z,3.40
2023-01-11T23:54:49.682Z,3.60
2023-01-11T23:57:19.533Z,3.60
2023-01-11T23:59:46.900Z,3.60
